createdAt,value
2023-03-27T00:01:35.947Z,1.10
2023-03-27T00:04:33.187Z,0.97
2023-03-27T00:07:30.029Z,0.70
2023-03-27T00:10:27.563Z,0.47
2023-03-27T00:13:18.325Z,0.57
2023-03-27T00:16:14.125Z,0.37
2023-03-27T00:19:07.504Z,0.40
2023-03-27T00:21:57.200Z,0.40
2023-03-27T00:24:46.723Z,0.50
2023-03-27T00:27:40.154Z,0.70
2023-03-27T00:30:29.522Z,0.47
2023-03-27T00:33:23.200Z,0.40
2023-03-27T00:36:19.656Z,0.30
2023-03-27T00:39:07.523Z,0.30
2023-03-27T00:41:58.951Z,0.50
2023-03-27T00:44:50.154Z,0.50
2023-03-27T00:47:44.172Z,0.40
2023-03-27T00:50:37.116Z,0.40
2023-03-27T00:53:31.209Z,0.30
2023-03-27T00:56:26.016Z,0.30
2023-03-27T00:59:21.626Z,0.30
2023-03-27T01:02:11.040Z,0.20
2023-03-27T01:05:02.721Z,0.40
2023-03-27T01:08:00.628Z,0.30
2023-03-27T01:11:01.698Z,0.40
2023-03-27T01:14:08.535Z,0.30
2023-03-27T01:17:15.565Z,0.50
2023-03-27T01:20:27.518Z,0.40
2023-03-27T01:23:59.751Z,0.33
2023-03-27T01:27:06.551Z,0.50
2023-03-27T01:30:09.251Z,0.60
2023-03-27T01:33:39.074Z,0.60
2023-03-27T01:36:52.716Z,0.57
2023-03-27T01:39:56.206Z,0.60
2023-03-27T01:42:54.547Z,0.40
2023-03-27T01:45:48.893Z,0.50
2023-03-27T01:48:44.900Z,0.50
2023-03-27T01:51:38.243Z,0.80
2023-03-27T01:54:29.033Z,0.80
2023-03-27T01:57:25.362Z,0.40
2023-03-27T02:00:22.708Z,0.73
2023-03-27T02:03:16.063Z,0.60
2023-03-27T02:06:10.342Z,0.50
2023-03-27T02:09:02.954Z,1.00
2023-03-27T02:12:02.250Z,0.77
2023-03-27T02:14:58.064Z,0.90
2023-03-27T02:18:10.448Z,0.60
2023-03-27T02:21:03.379Z,1.07
2023-03-27T02:23:57.922Z,0.60
2023-03-27T02:26:46.781Z,0.50
2023-03-27T02:30:01.775Z,0.50
2023-03-27T02:33:03.174Z,0.40
2023-03-27T02:36:03.700Z,0.60
2023-03-27T02:39:06.946Z,0.80
2023-03-27T02:42:09.119Z,0.70
2023-03-27T02:45:04.826Z,0.80
2023-03-27T02:48:02.265Z,0.80
2023-03-27T02:51:00.095Z,1.10
2023-03-27T02:54:00.487Z,1.20
2023-03-27T02:56:55.460Z,0.80
2023-03-27T02:59:51.222Z,0.63
2023-03-27T03:02:46.238Z,0.70
2023-03-27T03:05:44.713Z,0.90
2023-03-27T03:08:41.634Z,0.80
2023-03-27T03:11:30.401Z,0.60
2023-03-27T03:14:27.835Z,0.60
2023-03-27T03:17:20.237Z,0.67
2023-03-27T03:20:13.574Z,0.73
2023-03-27T03:23:07.958Z,0.60
2023-03-27T03:25:57.037Z,0.90
2023-03-27T03:29:00.187Z,0.70
2023-03-27T03:31:52.890Z,1.00
2023-03-27T03:34:43.118Z,1.70
2023-03-27T03:37:39.184Z,1.63
2023-03-27T03:40:31.713Z,2.07
2023-03-27T03:43:22.050Z,2.40
2023-03-27T03:46:10.754Z,2.67
2023-03-27T03:49:01.261Z,2.20
2023-03-27T03:52:04.365Z,2.10
2023-03-27T03:54:56.800Z,2.30
2023-03-27T03:57:48.926Z,2.80
2023-03-27T04:00:43.709Z,2.43
2023-03-27T04:03:32.985Z,2.70
2023-03-27T04:06:21.816Z,2.70
2023-03-27T04:09:10.173Z,3.67
2023-03-27T04:12:01.872Z,3.60
2023-03-27T04:14:55.303Z,3.23
2023-03-27T04:17:48.985Z,3.40
2023-03-27T04:20:43.378Z,2.57
2023-03-27T04:23:42.860Z,3.23
2023-03-27T04:26:31.807Z,3.53
2023-03-27T04:29:23.351Z,3.27
2023-03-27T04:32:23.124Z,3.30
2023-03-27T04:35:12.512Z,3.47
2023-03-27T04:38:06.869Z,3.73
2023-03-27T04:40:56.929Z,3.57
2023-03-27T04:43:49.109Z,3.27
2023-03-27T04:46:37.378Z,3.17
2023-03-27T04:49:39.092Z,3.80
2023-03-27T04:52:29.837Z,3.23
2023-03-27T04:55:19.273Z,3.03
2023-03-27T04:58:10.135Z,2.33
2023-03-27T05:01:00.305Z,2.27
2023-03-27T05:03:56.076Z,3.03
2023-03-27T05:06:50.426Z,3.17
2023-03-27T05:09:42.842Z,3.27
2023-03-27T05:12:37.081Z,1.70
2023-03-27T05:15:29.025Z,2.80
2023-03-27T05:18:21.407Z,2.40
2023-03-27T05:21:16.848Z,2.77
2023-03-27T05:24:12.089Z,2.47
2023-03-27T05:27:01.726Z,2.87
2023-03-27T05:29:54.336Z,3.60
2023-03-27T05:32:49.315Z,3.20
2023-03-27T05:35:45.711Z,3.07
2023-03-27T05:38:37.223Z,3.67
2023-03-27T05:41:34.434Z,3.67
2023-03-27T05:44:24.217Z,3.67
2023-03-27T05:47:15.242Z,3.47
2023-03-27T05:50:04.674Z,4.03
2023-03-27T05:53:04.037Z,3.50
2023-03-27T05:56:02.867Z,3.47
2023-03-27T05:58:56.197Z,3.70
2023-03-27T06:02:05.778Z,5.20
2023-03-27T06:04:54.207Z,3.47
2023-03-27T06:07:45.798Z,3.57
2023-03-27T06:10:34.672Z,3.13
2023-03-27T06:13:24.428Z,3.43
2023-03-27T06:16:15.554Z,3.70
2023-03-27T06:19:04.768Z,3.23
2023-03-27T06:21:57.651Z,3.90
2023-03-27T06:24:46.370Z,3.43
2023-03-27T06:27:34.519Z,2.63
2023-03-27T06:30:25.794Z,3.57
2023-03-27T06:33:17.799Z,3.93
2023-03-27T06:36:10.519Z,3.03
2023-03-27T06:38:58.757Z,3.90
2023-03-27T06:41:46.581Z,3.53
2023-03-27T06:44:35.422Z,3.33
2023-03-27T06:47:24.128Z,4.23
2023-03-27T06:50:17.620Z,3.53
2023-03-27T06:53:15.842Z,4.40
2023-03-27T06:56:12.742Z,3.57
2023-03-27T06:59:00.694Z,3.93
2023-03-27T07:01:49.199Z,4.00
2023-03-27T07:04:39.919Z,4.10
2023-03-27T07:07:29.857Z,4.73
2023-03-27T07:10:18.137Z,3.90
2023-03-27T07:13:16.331Z,3.47
2023-03-27T07:16:05.059Z,3.67
2023-03-27T07:18:53.840Z,4.10
2023-03-27T07:21:41.336Z,4.00
2023-03-27T07:24:31.759Z,3.83
2023-03-27T07:27:20.571Z,3.97
2023-03-27T07:30:12.624Z,3.57
2023-03-27T07:33:04.391Z,3.33
2023-03-27T07:35:53.019Z,3.80
2023-03-27T07:38:42.972Z,3.60
2023-03-27T07:41:32.952Z,3.00
2023-03-27T07:44:24.179Z,3.07
2023-03-27T07:47:12.642Z,3.53
2023-03-27T07:50:08.396Z,3.47
2023-03-27T07:53:00.221Z,3.17
2023-03-27T07:55:48.868Z,3.70
2023-03-27T07:58:39.572Z,3.73
2023-03-27T08:01:27.894Z,3.40
2023-03-27T08:04:16.603Z,4.60
2023-03-27T08:07:04.655Z,3.70
2023-03-27T08:09:57.752Z,3.17
2023-03-27T08:12:49.605Z,2.90
2023-03-27T08:15:42.076Z,3.23
2023-03-27T08:18:37.064Z,3.37
2023-03-27T08:21:28.243Z,4.83
2023-03-27T08:24:19.397Z,3.40
2023-03-27T08:27:08.160Z,3.50
2023-03-27T08:29:56.604Z,3.13
2023-03-27T08:32:45.875Z,3.37
2023-03-27T08:35:34.107Z,3.50
2023-03-27T08:38:26.960Z,3.10
2023-03-27T08:41:28.371Z,2.50
2023-03-27T08:44:19.060Z,2.50
2023-03-27T08:47:13.817Z,2.43
2023-03-27T08:50:07.279Z,1.87
2023-03-27T08:52:54.475Z,1.80
2023-03-27T08:55:43.795Z,1.73
2023-03-27T08:58:33.102Z,1.70
2023-03-27T09:01:26.817Z,2.00
2023-03-27T09:04:25.462Z,1.90
2023-03-27T09:07:27.910Z,1.77
2023-03-27T09:10:19.307Z,1.70
2023-03-27T09:13:15.053Z,1.90
2023-03-27T09:16:05.080Z,1.40
2023-03-27T09:19:00.967Z,1.27
2023-03-27T09:21:55.682Z,1.73
2023-03-27T09:24:48.238Z,1.90
2023-03-27T09:27:37.814Z,1.20
2023-03-27T09:30:27.610Z,1.40
2023-03-27T09:33:14.907Z,1.20
2023-03-27T09:36:02.261Z,1.35
2023-03-27T09:39:00.358Z,1.10
2023-03-27T09:41:52.444Z,1.40
2023-03-27T09:44:42.933Z,1.50
2023-03-27T09:47:35.653Z,1.40
2023-03-27T09:50:29.731Z,1.33
2023-03-27T09:53:19.220Z,1.30
2023-03-27T09:56:13.475Z,1.60
2023-03-27T09:59:09.264Z,1.47
2023-03-27T10:01:59.375Z,1.23
2023-03-27T10:05:00.163Z,1.73
2023-03-27T10:07:47.668Z,1.20
2023-03-27T10:10:42.075Z,1.17
2023-03-27T10:13:30.912Z,1.33
2023-03-27T10:16:22.015Z,1.20
2023-03-27T10:19:22.017Z,1.20
2023-03-27T10:22:19.465Z,1.20
2023-03-27T10:25:17.857Z,1.03
2023-03-27T10:28:18.762Z,1.50
2023-03-27T10:31:11.160Z,1.37
2023-03-27T10:34:02.121Z,1.90
2023-03-27T10:36:49.462Z,1.60
2023-03-27T10:39:38.830Z,1.13
2023-03-27T10:42:28.830Z,0.90
2023-03-27T10:45:18.235Z,1.53
2023-03-27T10:48:09.131Z,1.27
2023-03-27T10:51:05.655Z,1.07
2023-03-27T10:53:57.873Z,1.20
2023-03-27T10:56:54.711Z,2.40
2023-03-27T10:59:45.192Z,1.20
2023-03-27T11:02:39.008Z,1.20
2023-03-27T11:05:30.642Z,1.37
2023-03-27T11:08:24.953Z,0.97
2023-03-27T11:11:19.201Z,1.00
2023-03-27T11:14:13.621Z,1.13
2023-03-27T11:17:05.540Z,1.57
2023-03-27T11:19:56.891Z,1.10
2023-03-27T11:22:48.013Z,1.57
2023-03-27T11:25:44.897Z,2.00
2023-03-27T11:28:43.062Z,1.10
2023-03-27T11:31:40.257Z,1.10
2023-03-27T11:34:35.555Z,0.97
2023-03-27T11:37:27.352Z,1.10
2023-03-27T11:40:20.875Z,1.13
2023-03-27T11:43:11.945Z,1.00
2023-03-27T11:46:17.128Z,1.30
2023-03-27T11:49:14.999Z,1.10
2023-03-27T11:52:14.221Z,1.03
2023-03-27T11:55:23.873Z,1.13
2023-03-27T11:58:26.935Z,1.10
2023-03-27T12:01:23.153Z,1.00
2023-03-27T12:04:29.681Z,1.37
2023-03-27T12:07:35.836Z,1.10
2023-03-27T12:10:32.143Z,1.10
2023-03-27T12:14:01.671Z,1.00
2023-03-27T12:17:05.726Z,1.27
2023-03-27T12:20:21.247Z,1.70
2023-03-27T12:23:29.387Z,1.30
2023-03-27T12:26:45.587Z,1.17
2023-03-27T12:29:53.888Z,1.20
2023-03-27T12:33:07.594Z,1.47
2023-03-27T12:36:01.001Z,1.30
2023-03-27T12:38:49.905Z,1.23
2023-03-27T12:41:48.506Z,1.50
2023-03-27T12:45:07.283Z,1.53
2023-03-27T12:48:19.789Z,1.30
2023-03-27T12:51:17.880Z,1.30
2023-03-27T12:54:25.681Z,1.23
2023-03-27T12:57:18.326Z,1.63
2023-03-27T13:00:21.844Z,1.13
2023-03-27T13:03:37.800Z,1.10
2023-03-27T13:06:36.746Z,1.33
2023-03-27T13:09:42.726Z,1.50
2023-03-27T13:13:01.063Z,1.20
2023-03-27T13:16:30.922Z,1.30
2023-03-27T13:19:36.383Z,0.80
2023-03-27T13:22:37.455Z,0.97
2023-03-27T13:25:34.680Z,1.10
2023-03-27T13:28:36.339Z,1.20
2023-03-27T13:32:09.564Z,1.37
2023-03-27T13:35:08.939Z,1.80
2023-03-27T13:38:02.945Z,1.40
2023-03-27T13:40:51.674Z,1.10
2023-03-27T13:43:40.088Z,0.87
2023-03-27T13:46:31.523Z,1.20
2023-03-27T13:49:32.472Z,0.73
2023-03-27T13:53:01.673Z,1.07
2023-03-27T13:56:21.754Z,1.07
2023-03-27T13:59:42.243Z,1.30
2023-03-27T14:03:03.248Z,1.23
2023-03-27T14:06:21.918Z,0.80
2023-03-27T14:09:19.355Z,1.37
2023-03-27T14:12:15.815Z,1.00
2023-03-27T14:15:22.778Z,1.17
2023-03-27T14:18:38.743Z,0.87
2023-03-27T14:21:38.417Z,1.07
2023-03-27T14:24:35.054Z,1.20
2023-03-27T14:27:24.025Z,1.00
2023-03-27T14:30:17.496Z,1.10
2023-03-27T14:33:09.955Z,1.10
2023-03-27T14:36:02.559Z,1.20
2023-03-27T14:38:51.734Z,1.27
2023-03-27T14:41:47.736Z,1.20
2023-03-27T14:44:38.198Z,0.90
2023-03-27T14:47:27.388Z,1.17
2023-03-27T14:50:16.280Z,0.93
2023-03-27T14:53:10.270Z,1.20
2023-03-27T14:56:05.964Z,0.87
2023-03-27T14:58:59.855Z,1.10
2023-03-27T15:01:50.479Z,1.00
2023-03-27T15:04:41.476Z,1.23
2023-03-27T15:07:30.725Z,0.83
2023-03-27T15:10:22.826Z,0.70
2023-03-27T15:13:13.096Z,1.50
2023-03-27T15:16:01.224Z,0.63
2023-03-27T15:19:00.643Z,1.27
2023-03-27T15:21:57.816Z,1.40
2023-03-27T15:24:52.682Z,1.10
2023-03-27T15:27:43.775Z,1.27
2023-03-27T15:30:37.856Z,1.00
2023-03-27T15:33:34.773Z,0.90
2023-03-27T15:36:28.679Z,0.90
2023-03-27T15:39:22.507Z,0.90
2023-03-27T15:42:15.478Z,1.20
2023-03-27T15:45:04.694Z,1.10
2023-03-27T15:48:05.742Z,1.37
2023-03-27T15:55:41.870Z,1.10
2023-03-27T15:58:34.239Z,1.20
2023-03-27T16:01:23.666Z,1.13
2023-03-27T16:04:16.492Z,1.17
2023-03-27T16:07:10.974Z,1.27
2023-03-27T16:10:02.603Z,0.90
2023-03-27T16:12:52.094Z,1.10
2023-03-27T16:15:41.874Z,1.43
2023-03-27T16:18:33.219Z,1.30
2023-03-27T16:21:26.342Z,0.97
2023-03-27T16:24:13.238Z,1.10
2023-03-27T16:27:00.034Z,1.00
2023-03-27T16:29:48.480Z,1.10
2023-03-27T16:32:36.188Z,1.10
2023-03-27T16:51:07.786Z,1.30
2023-03-27T16:53:55.080Z,1.20
2023-03-27T16:56:41.935Z,1.43
2023-03-27T16:59:29.323Z,1.43
2023-03-27T17:02:16.693Z,1.20
2023-03-27T17:05:04.267Z,1.47
2023-03-27T17:07:52.589Z,0.90
2023-03-27T17:10:40.026Z,1.47
2023-03-27T17:13:27.052Z,1.13
2023-03-27T17:16:15.389Z,1.60
2023-03-27T17:19:02.824Z,1.77
2023-03-27T17:21:49.516Z,1.10
2023-03-27T17:24:49.329Z,1.57
2023-03-27T17:27:42.632Z,1.50
2023-03-27T17:30:38.509Z,1.40
2023-03-27T17:33:27.915Z,1.23
2023-03-27T17:36:21.639Z,0.90
2023-03-27T17:39:14.096Z,1.30
2023-03-27T17:42:02.354Z,0.90
2023-03-27T17:44:49.473Z,1.53
2023-03-27T17:47:36.613Z,1.37
2023-03-27T17:50:23.647Z,1.17
2023-03-27T17:53:10.610Z,1.20
2023-03-27T17:55:58.274Z,1.03
2023-03-27T17:58:48.845Z,1.10
2023-03-27T18:01:35.624Z,1.40
2023-03-27T18:04:22.912Z,1.20
2023-03-27T18:07:09.726Z,1.47
2023-03-27T18:09:56.629Z,1.30
2023-03-27T18:12:43.451Z,1.40
2023-03-27T18:15:32.236Z,1.03
2023-03-27T18:18:18.966Z,0.97
2023-03-27T18:21:07.006Z,1.37
2023-03-27T18:23:56.045Z,1.13
2023-03-27T18:26:42.935Z,1.20
2023-03-27T18:29:30.951Z,1.27
2023-03-27T18:32:20.702Z,0.90
2023-03-27T18:35:09.541Z,1.37
2023-03-27T18:37:56.677Z,1.33
2023-03-27T18:40:43.508Z,1.33
2023-03-27T18:43:30.306Z,1.00
2023-03-27T18:46:17.697Z,1.30
2023-03-27T18:49:13.926Z,1.30
2023-03-27T18:52:09.968Z,1.20
2023-03-27T18:54:56.890Z,1.03
2023-03-27T18:57:45.181Z,1.10
2023-03-27T19:00:32.207Z,1.27
2023-03-27T19:03:21.054Z,1.60
2023-03-27T19:06:11.753Z,1.40
2023-03-27T19:08:58.847Z,2.00
2023-03-27T19:11:45.902Z,1.60
2023-03-27T19:14:33.033Z,1.30
2023-03-27T19:17:23.236Z,1.10
2023-03-27T19:20:11.281Z,1.20
2023-03-27T19:22:59.657Z,0.90
2023-03-27T19:25:49.497Z,1.10
2023-03-27T19:28:37.112Z,1.17
2023-03-27T19:31:24.279Z,0.90
2023-03-27T19:34:11.593Z,1.60
2023-03-27T19:36:58.305Z,1.10
2023-03-27T19:39:46.404Z,1.30
2023-03-27T19:42:34.173Z,1.30
2023-03-27T19:45:21.167Z,1.57
2023-03-27T19:48:08.230Z,1.47
2023-03-27T19:50:58.996Z,1.40
2023-03-27T19:53:46.699Z,1.40
2023-03-27T19:56:35.185Z,0.80
2023-03-27T19:59:30.392Z,1.07
2023-03-27T20:02:18.356Z,1.40
2023-03-27T20:05:05.382Z,1.23
2023-03-27T20:07:52.062Z,1.23
2023-03-27T20:10:38.578Z,1.20
2023-03-27T20:13:26.855Z,1.40
2023-03-27T20:16:15.021Z,1.00
2023-03-27T20:19:04.841Z,1.47
2023-03-27T20:21:52.942Z,1.17
2023-03-27T20:24:40.281Z,1.20
2023-03-27T20:27:27.378Z,1.47
2023-03-27T20:30:15.716Z,1.70
2023-03-27T20:33:03.237Z,1.10
2023-03-27T20:35:49.964Z,1.50
2023-03-27T20:38:37.120Z,1.50
2023-03-27T20:41:27.232Z,1.43
2023-03-27T20:44:16.407Z,1.80
2023-03-27T20:47:11.002Z,1.10
2023-03-27T20:49:59.082Z,1.20
2023-03-27T20:52:46.527Z,1.60
2023-03-27T20:55:37.544Z,1.47
2023-03-27T20:58:33.324Z,1.57
2023-03-27T21:01:20.727Z,1.53
2023-03-27T21:04:09.796Z,1.80
2023-03-27T21:06:56.974Z,1.80
2023-03-27T21:09:44.254Z,1.80
2023-03-27T21:12:30.949Z,1.40
2023-03-27T21:15:18.136Z,1.30
2023-03-27T21:18:05.508Z,1.67
2023-03-27T21:20:54.750Z,1.43
2023-03-27T21:23:41.554Z,1.80
2023-03-27T21:26:28.600Z,1.40
2023-03-27T21:29:15.676Z,0.93
2023-03-27T21:32:02.619Z,1.40
2023-03-27T21:34:49.518Z,1.63
2023-03-27T21:37:38.014Z,1.53
2023-03-27T21:40:24.949Z,1.93
2023-03-27T21:43:13.170Z,1.33
2023-03-27T21:46:02.212Z,1.70
2023-03-27T21:48:50.006Z,1.40
2023-03-27T21:51:37.146Z,1.63
2023-03-27T21:54:25.933Z,1.47
2023-03-27T21:57:12.790Z,1.30
2023-03-27T21:59:59.924Z,1.30
2023-03-27T22:02:46.853Z,1.30
2023-03-27T22:05:37.274Z,1.17
2023-03-27T22:08:25.315Z,1.27
2023-03-27T22:11:16.652Z,1.67
2023-03-27T22:14:04.048Z,1.50
2023-03-27T22:16:51.211Z,2.10
2023-03-27T22:19:37.844Z,2.00
2023-03-27T22:22:25.238Z,1.57
2023-03-27T22:25:12.213Z,1.97
2023-03-27T22:28:01.830Z,1.70
2023-03-27T22:30:49.075Z,1.93
2023-03-27T22:33:35.956Z,1.43
2023-03-27T22:36:23.419Z,1.70
2023-03-27T22:39:10.272Z,1.50
2023-03-27T22:41:57.132Z,1.63
2023-03-27T22:44:45.511Z,1.67
2023-03-27T22:47:32.893Z,2.50
2023-03-27T22:50:19.812Z,1.50
2023-03-27T22:53:06.970Z,1.70
2023-03-27T22:55:55.049Z,2.17
2023-03-27T22:58:41.728Z,1.70
2023-03-27T23:01:30.021Z,2.10
2023-03-27T23:04:17.079Z,1.90
2023-03-27T23:07:04.277Z,1.67
2023-03-27T23:09:51.553Z,2.17
2023-03-27T23:12:38.519Z,1.90
2023-03-27T23:15:30.147Z,2.07
2023-03-27T23:18:21.798Z,2.23
2023-03-27T23:21:10.348Z,1.77
2023-03-27T23:23:57.557Z,2.13
2023-03-27T23:26:44.039Z,1.77
2023-03-27T23:29:31.041Z,1.77
2023-03-27T23:32:17.510Z,1.80
2023-03-27T23:35:06.441Z,2.33
2023-03-27T23:37:53.477Z,2.10
2023-03-27T23:40:40.270Z,2.00
2023-03-27T23:43:28.625Z,1.70
2023-03-27T23:46:15.968Z,2.40
2023-03-27T23:49:02.672Z,1.30
2023-03-27T23:51:51.160Z,1.90
2023-03-27T23:54:38.325Z,1.93
2023-03-27T23:57:25.738Z,1.93
